Time;durP1;ratioP1;P1;durP2;ratioP2;P2;SDS_P1;SDS_P2;PMS_P1;PMS_P2;Temp;Humidity;BMP_temperature;BMP_pressure;BME280_temperature;BME280_humidity;BME280_pressure;Samples;Min_cycle;Max_cycle;Signal;HPM_P1;HPM_P2
2023/05/23 00:02:08;;;;;;;19.90;13.10;;;;;;;;;;4995030;28;20057;-72
2023/05/23 00:04:57;;;;;;;32.85;21.60;;;;;;;;;;4995809;28;20080;-70
2023/05/23 00:07:43;;;;;;;36.47;22.55;;;;;;;;;;4995471;28;20553;-68
2023/05/23 00:10:28;;;;;;;34.17;23.13;;;;;;;;;;4994599;28;20174;-67
2023/05/23 00:13:13;;;;;;;37.42;23.67;;;;;;;;;;4995370;28;20030;-70
2023/05/23 00:15:59;;;;;;;38.45;22.92;;;;;;;;;;4995210;28;20511;-69
2023/05/23 00:18:44;;;;;;;41.92;23.02;;;;;;;;;;4989152;28;20548;-67
2023/05/23 00:21:29;;;;;;;45.80;26.20;;;;;;;;;;4989367;28;20026;-67
2023/05/23 00:24:17;;;;;;;41.50;25.75;;;;;;;;;;4984729;28;20089;-67
2023/05/23 00:27:02;;;;;;;30.55;22.20;;;;;;;;;;4983541;28;20034;-74
2023/05/23 00:29:48;;;;;;;38.60;25.15;;;;;;;;;;4978139;28;20542;-73
2023/05/23 00:32:34;;;;;;;39.85;25.90;;;;;;;;;;4989065;28;20525;-74
2023/05/23 00:35:19;;;;;;;39.33;24.13;;;;;;;;;;4981175;28;20382;-73
2023/05/23 00:38:06;;;;;;;43.45;26.92;;;;;;;;;;4975690;28;20050;-73
2023/05/23 00:40:51;;;;;;;39.53;24.30;;;;;;;;;;4989531;28;20034;-71
2023/05/23 00:43:37;;;;;;;43.28;28.70;;;;;;;;;;4989012;28;20064;-68
2023/05/23 00:46:22;;;;;;;44.13;27.17;;;;;;;;;;4989302;28;20542;-66
2023/05/23 00:49:07;;;;;;;43.22;27.20;;;;;;;;;;4987637;28;20025;-67
2023/05/23 00:51:52;;;;;;;40.35;26.08;;;;;;;;;;4984914;28;20597;-68
2023/05/23 00:54:38;;;;;;;46.22;27.40;;;;;;;;;;4989080;28;20034;-66
2023/05/23 00:57:23;;;;;;;48.80;28.98;;;;;;;;;;4988840;28;20026;-67
2023/05/23 01:00:09;;;;;;;43.10;29.80;;;;;;;;;;4988904;28;20390;-68
2023/05/23 01:02:55;;;;;;;46.60;29.10;;;;;;;;;;4982682;28;20034;-68
2023/05/23 01:05:40;;;;;;;42.50;26.48;;;;;;;;;;4999980;28;20022;-69
2023/05/23 01:08:27;;;;;;;47.15;30.33;;;;;;;;;;4988908;28;20030;-68
2023/05/23 01:11:20;;;;;;;42.00;28.45;;;;;;;;;;4988997;28;20022;-69
2023/05/23 01:14:11;;;;;;;59.38;29.40;;;;;;;;;;4975443;28;20110;-69
2023/05/23 01:16:58;;;;;;;50.38;31.30;;;;;;;;;;4988960;28;20022;-69
2023/05/23 01:19:50;;;;;;;46.42;28.13;;;;;;;;;;4974821;28;20133;-67
2023/05/23 01:22:40;;;;;;;41.63;29.48;;;;;;;;;;4975174;28;20030;-72
2023/05/23 01:25:49;;;;;;;44.55;29.90;;;;;;;;;;4980147;28;20035;-73
2023/05/23 01:28:36;;;;;;;50.20;31.25;;;;;;;;;;4988795;28;20022;-73
2023/05/23 01:31:23;;;;;;;50.60;30.13;;;;;;;;;;5002482;28;20113;-74
2023/05/23 01:34:09;;;;;;;50.47;33.58;;;;;;;;;;4988503;28;20038;-72
2023/05/23 01:36:55;;;;;;;57.65;38.55;;;;;;;;;;4990248;28;20177;-68
2023/05/23 01:39:40;;;;;;;51.25;33.28;;;;;;;;;;4978598;28;20350;-68
2023/05/23 01:42:27;;;;;;;55.20;38.00;;;;;;;;;;4992276;28;20131;-68
2023/05/23 01:45:12;;;;;;;59.15;37.13;;;;;;;;;;4992241;28;20022;-67
2023/05/23 01:47:59;;;;;;;52.88;36.40;;;;;;;;;;4992165;28;20032;-67
2023/05/23 01:50:44;;;;;;;58.97;36.85;;;;;;;;;;4992047;28;20022;-68
2023/05/23 01:53:30;;;;;;;55.92;33.92;;;;;;;;;;4992212;28;20019;-68
2023/05/23 01:56:16;;;;;;;54.60;35.70;;;;;;;;;;4992279;28;20100;-74
2023/05/23 01:59:02;;;;;;;52.30;32.67;;;;;;;;;;4991941;28;20452;-71
2023/05/23 02:01:47;;;;;;;50.75;33.00;;;;;;;;;;4991602;28;20441;-72
2023/05/23 02:04:33;;;;;;;56.05;36.17;;;;;;;;;;4983638;28;20405;-72
2023/05/23 02:07:21;;;;;;;61.65;38.80;;;;;;;;;;4991971;28;20097;-73
2023/05/23 02:10:07;;;;;;;57.53;37.63;;;;;;;;;;4991738;28;20034;-72
2023/05/23 02:12:52;;;;;;;58.53;37.05;;;;;;;;;;4992052;28;20030;-74
2023/05/23 02:15:38;;;;;;;58.35;37.72;;;;;;;;;;4991791;28;20022;-69
2023/05/23 02:18:25;;;;;;;54.03;37.25;;;;;;;;;;4995817;28;20054;-69
2023/05/23 02:21:10;;;;;;;63.15;39.40;;;;;;;;;;4984039;28;20058;-68
2023/05/23 02:23:55;;;;;;;60.25;38.03;;;;;;;;;;4997490;28;20083;-68
2023/05/23 02:26:40;;;;;;;64.78;41.60;;;;;;;;;;4996911;28;20104;-69
2023/05/23 02:29:26;;;;;;;58.67;38.05;;;;;;;;;;4997437;28;20045;-68
2023/05/23 02:32:11;;;;;;;57.63;38.20;;;;;;;;;;4991438;28;20017;-66
2023/05/23 02:34:57;;;;;;;58.28;38.92;;;;;;;;;;5010358;28;20106;-75
2023/05/23 02:37:42;;;;;;;61.33;39.65;;;;;;;;;;4991525;28;20317;-74
2023/05/23 02:40:27;;;;;;;56.17;35.60;;;;;;;;;;4997269;28;20038;-73
2023/05/23 02:43:12;;;;;;;54.10;37.10;;;;;;;;;;4996714;28;20040;-73
2023/05/23 02:45:57;;;;;;;59.60;37.20;;;;;;;;;;4996991;28;20022;-73
2023/05/23 02:48:44;;;;;;;48.63;31.67;;;;;;;;;;4996455;28;20125;-73
2023/05/23 02:51:30;;;;;;;52.58;34.40;;;;;;;;;;4997150;28;20105;-68
2023/05/23 02:54:16;;;;;;;58.38;39.67;;;;;;;;;;4997032;28;20018;-69
2023/05/23 02:57:01;;;;;;;56.60;37.05;;;;;;;;;;4996706;28;20428;-68
2023/05/23 02:59:46;;;;;;;57.38;40.55;;;;;;;;;;4991030;28;20037;-68
2023/05/23 03:02:32;;;;;;;54.90;37.13;;;;;;;;;;4997036;28;20385;-68
2023/05/23 03:05:17;;;;;;;52.72;36.40;;;;;;;;;;4996795;28;20128;-69
2023/05/23 03:08:02;;;;;;;65.00;40.13;;;;;;;;;;4996781;28;20432;-68
2023/05/23 03:10:47;;;;;;;54.20;36.05;;;;;;;;;;4996808;28;20021;-68
2023/05/23 03:13:33;;;;;;;56.72;37.13;;;;;;;;;;4996887;28;20030;-67
2023/05/23 03:16:18;;;;;;;52.25;35.15;;;;;;;;;;4996700;28;20079;-68
2023/05/23 03:19:04;;;;;;;50.45;34.60;;;;;;;;;;4982263;28;20440;-69
2023/05/23 03:21:51;;;;;;;51.22;32.97;;;;;;;;;;4996764;28;20034;-69
2023/05/23 03:24:36;;;;;;;46.60;30.83;;;;;;;;;;4996151;28;20036;-68
2023/05/23 03:27:21;;;;;;;50.30;35.47;;;;;;;;;;4985525;28;20027;-72
2023/05/23 03:30:06;;;;;;;47.03;33.15;;;;;;;;;;4983702;28;20477;-74
2023/05/23 03:32:52;;;;;;;48.05;33.65;;;;;;;;;;4986292;28;20025;-72
2023/05/23 03:35:37;;;;;;;46.13;31.95;;;;;;;;;;4996952;28;20109;-71
2023/05/23 03:38:23;;;;;;;53.30;38.65;;;;;;;;;;4996356;28;20060;-72
2023/05/23 03:41:08;;;;;;;45.15;32.70;;;;;;;;;;4996037;28;20029;-71
2023/05/23 03:43:53;;;;;;;70.13;39.45;;;;;;;;;;4996066;28;20072;-71
2023/05/23 03:46:38;;;;;;;51.78;34.90;;;;;;;;;;4996000;28;20018;-72
2023/05/23 03:49:24;;;;;;;49.22;34.13;;;;;;;;;;4995767;28;20098;-74
2023/05/23 03:52:09;;;;;;;46.75;33.95;;;;;;;;;;4996356;28;20096;-75
2023/05/23 03:54:54;;;;;;;47.97;32.33;;;;;;;;;;4988512;28;20026;-74
2023/05/23 03:57:39;;;;;;;48.75;34.53;;;;;;;;;;4995707;28;20018;-75
2023/05/23 04:00:25;;;;;;;46.40;32.58;;;;;;;;;;4995008;28;20022;-74
2023/05/23 04:03:13;;;;;;;43.15;32.15;;;;;;;;;;4985918;28;20437;-75
2023/05/23 04:05:59;;;;;;;44.95;34.65;;;;;;;;;;4985020;28;20452;-74
2023/05/23 04:08:44;;;;;;;47.63;33.08;;;;;;;;;;4995660;28;20477;-75
2023/05/23 04:11:30;;;;;;;47.00;31.25;;;;;;;;;;4995681;28;20138;-76
2023/05/23 04:14:16;;;;;;;44.65;31.25;;;;;;;;;;4995369;28;20029;-76
2023/05/23 04:17:01;;;;;;;44.88;33.22;;;;;;;;;;4995323;28;20488;-75
2023/05/23 04:19:46;;;;;;;50.30;34.95;;;;;;;;;;4982660;28;20080;-75
2023/05/23 04:22:32;;;;;;;46.30;33.70;;;;;;;;;;4995649;28;20033;-76
2023/05/23 04:25:19;;;;;;;46.20;34.42;;;;;;;;;;4995309;28;20021;-75
2023/05/23 04:28:05;;;;;;;43.53;32.35;;;;;;;;;;4994874;28;20476;-74
2023/05/23 04:30:50;;;;;;;44.38;30.00;;;;;;;;;;4995599;28;20033;-74
2023/05/23 04:33:35;;;;;;;45.67;30.92;;;;;;;;;;4995604;28;20108;-75
2023/05/23 04:36:22;;;;;;;38.80;29.13;;;;;;;;;;4992207;28;20120;-74
2023/05/23 04:39:08;;;;;;;41.65;32.17;;;;;;;;;;4995430;28;20060;-73
2023/05/23 04:41:53;;;;;;;46.50;32.40;;;;;;;;;;4994896;28;20028;-76
2023/05/23 04:44:38;;;;;;;40.60;29.85;;;;;;;;;;4995220;28;20033;-70
2023/05/23 04:47:26;;;;;;;37.13;27.83;;;;;;;;;;4995316;28;20020;-68
2023/05/23 04:50:13;;;;;;;43.20;30.17;;;;;;;;;;4993648;28;20314;-68
2023/05/23 04:52:59;;;;;;;39.17;30.85;;;;;;;;;;4989252;28;20032;-68
2023/05/23 04:55:44;;;;;;;41.00;31.73;;;;;;;;;;4991150;28;20104;-67
2023/05/23 04:58:30;;;;;;;38.55;29.02;;;;;;;;;;4978765;28;20060;-74
2023/05/23 05:01:15;;;;;;;39.25;27.67;;;;;;;;;;4994900;28;20362;-70
2023/05/23 05:04:01;;;;;;;41.70;31.52;;;;;;;;;;4994770;28;20030;-70
2023/05/23 05:06:47;;;;;;;39.97;28.40;;;;;;;;;;4994067;28;20026;-68
2023/05/23 05:09:32;;;;;;;41.05;27.92;;;;;;;;;;4994484;28;20030;-67
2023/05/23 05:12:17;;;;;;;40.22;28.38;;;;;;;;;;4994042;28;20083;-69
2023/05/23 05:15:03;;;;;;;39.78;28.65;;;;;;;;;;4994946;28;20033;-67
2023/05/23 05:17:48;;;;;;;39.30;27.17;;;;;;;;;;4982869;28;20065;-70
2023/05/23 05:20:33;;;;;;;42.97;30.02;;;;;;;;;;4994916;28;20050;-74
2023/05/23 05:23:19;;;;;;;43.40;28.85;;;;;;;;;;4982643;28;20050;-72
2023/05/23 05:26:05;;;;;;;35.60;28.15;;;;;;;;;;4994741;28;20350;-72
2023/05/23 05:28:50;;;;;;;37.40;28.58;;;;;;;;;;4995157;28;20030;-72
2023/05/23 05:31:36;;;;;;;38.40;28.58;;;;;;;;;;4994883;28;20575;-73
2023/05/23 05:34:21;;;;;;;34.13;27.63;;;;;;;;;;4981222;28;20022;-73
2023/05/23 05:37:06;;;;;;;36.53;27.90;;;;;;;;;;4994349;28;20481;-68
2023/05/23 05:39:53;;;;;;;32.88;26.60;;;;;;;;;;4994459;28;20428;-68
2023/05/23 05:42:38;;;;;;;36.00;26.58;;;;;;;;;;4994660;28;20038;-67
2023/05/23 05:45:23;;;;;;;37.63;29.63;;;;;;;;;;4994483;28;20045;-67
2023/05/23 05:48:08;;;;;;;38.58;32.53;;;;;;;;;;4984248;28;20030;-68
2023/05/23 05:50:54;;;;;;;42.75;31.50;;;;;;;;;;4994057;28;20141;-68
2023/05/23 05:53:39;;;;;;;42.53;31.10;;;;;;;;;;4994246;28;20025;-68
2023/05/23 05:56:25;;;;;;;36.63;29.30;;;;;;;;;;4988495;28;20036;-72
2023/05/23 05:59:10;;;;;;;37.28;28.55;;;;;;;;;;4989656;28;20390;-75
2023/05/23 06:01:55;;;;;;;42.10;31.27;;;;;;;;;;4994056;28;20014;-74
2023/05/23 06:04:40;;;;;;;45.90;29.80;;;;;;;;;;4994731;28;20034;-73
2023/05/23 06:07:26;;;;;;;40.55;31.85;;;;;;;;;;4994356;28;20022;-74
2023/05/23 06:10:12;;;;;;;39.85;31.77;;;;;;;;;;4993893;28;20025;-73
2023/05/23 06:12:58;;;;;;;38.45;30.77;;;;;;;;;;4994348;28;20523;-70
2023/05/23 06:15:43;;;;;;;35.35;28.55;;;;;;;;;;4994324;28;20025;-69
2023/05/23 06:18:29;;;;;;;40.80;30.75;;;;;;;;;;4993753;28;20176;-68
2023/05/23 06:21:14;;;;;;;45.47;31.80;;;;;;;;;;4994029;28;20147;-67
2023/05/23 06:23:59;;;;;;;37.67;31.65;;;;;;;;;;4996897;28;20040;-68
2023/05/23 06:26:44;;;;;;;42.78;33.65;;;;;;;;;;4997667;28;20040;-68
2023/05/23 06:29:30;;;;;;;41.90;34.83;;;;;;;;;;4997265;28;20397;-68
2023/05/23 06:32:15;;;;;;;36.70;30.85;;;;;;;;;;4990582;28;20176;-72
2023/05/23 06:35:00;;;;;;;38.75;29.02;;;;;;;;;;4997364;28;20384;-76
2023/05/23 06:37:47;;;;;;;39.88;29.70;;;;;;;;;;4997484;28;20089;-76
2023/05/23 06:40:32;;;;;;;36.72;28.38;;;;;;;;;;4992610;28;20085;-76
2023/05/23 06:43:17;;;;;;;35.00;27.83;;;;;;;;;;4997189;28;20119;-75
2023/05/23 06:46:02;;;;;;;37.08;29.05;;;;;;;;;;4997447;28;20061;-77
2023/05/23 06:48:47;;;;;;;33.97;28.60;;;;;;;;;;4997521;28;20491;-76
2023/05/23 06:51:33;;;;;;;33.72;26.25;;;;;;;;;;4997635;28;20092;-67
2023/05/23 06:54:18;;;;;;;33.53;26.83;;;;;;;;;;4995899;28;20021;-72
2023/05/23 06:57:03;;;;;;;30.90;25.02;;;;;;;;;;4997292;28;20152;-74
2023/05/23 06:59:48;;;;;;;40.97;29.42;;;;;;;;;;4996982;28;20528;-74
2023/05/23 07:02:34;;;;;;;38.95;29.23;;;;;;;;;;4992276;28;20117;-73
2023/05/23 07:05:20;;;;;;;36.38;27.83;;;;;;;;;;4994664;28;20056;-73
2023/05/23 07:08:06;;;;;;;35.97;27.42;;;;;;;;;;4996955;28;20123;-68
2023/05/23 07:10:51;;;;;;;32.65;28.38;;;;;;;;;;4996970;28;20053;-73
2023/05/23 07:13:36;;;;;;;32.53;24.73;;;;;;;;;;4997105;28;20017;-73
2023/05/23 07:16:22;;;;;;;32.97;28.48;;;;;;;;;;4996841;28;20033;-71
2023/05/23 07:19:07;;;;;;;30.13;24.73;;;;;;;;;;4996410;28;20698;-73
2023/05/23 07:21:52;;;;;;;35.08;25.65;;;;;;;;;;4996872;28;20061;-72
2023/05/23 07:24:37;;;;;;;34.88;28.35;;;;;;;;;;4996444;28;20449;-73
2023/05/23 07:27:22;;;;;;;32.15;25.65;;;;;;;;;;4984802;28;20057;-76
2023/05/23 07:30:08;;;;;;;30.38;25.13;;;;;;;;;;4998159;28;20022;-74
2023/05/23 07:32:54;;;;;;;31.92;25.52;;;;;;;;;;4986883;28;20023;-74
2023/05/23 07:35:39;;;;;;;30.98;22.02;;;;;;;;;;4996544;28;20075;-73
2023/05/23 07:38:25;;;;;;;29.35;22.60;;;;;;;;;;4993969;28;20113;-75
2023/05/23 07:41:10;;;;;;;32.83;25.13;;;;;;;;;;4987869;28;20557;-74
2023/05/23 07:43:56;;;;;;;31.65;25.80;;;;;;;;;;4993865;28;20116;-74
2023/05/23 07:46:41;;;;;;;31.50;25.52;;;;;;;;;;4996406;28;20056;-69
2023/05/23 07:49:26;;;;;;;36.65;28.88;;;;;;;;;;4991074;28;20112;-68
2023/05/23 07:52:11;;;;;;;34.20;27.60;;;;;;;;;;4983911;28;20481;-69
2023/05/23 07:54:57;;;;;;;33.83;27.30;;;;;;;;;;4988720;28;20041;-69
2023/05/23 07:57:42;;;;;;;31.50;25.63;;;;;;;;;;4996112;28;20033;-68
2023/05/23 08:00:28;;;;;;;31.90;22.65;;;;;;;;;;4995978;28;20072;-71
2023/05/23 08:03:13;;;;;;;25.95;21.77;;;;;;;;;;4995424;28;20097;-72
2023/05/23 08:05:58;;;;;;;26.00;21.42;;;;;;;;;;4995861;28;20018;-69
2023/05/23 08:08:43;;;;;;;25.73;20.17;;;;;;;;;;4995894;28;20036;-70
2023/05/23 08:11:29;;;;;;;24.70;20.58;;;;;;;;;;4989914;28;20019;-69
2023/05/23 08:14:14;;;;;;;29.13;23.83;;;;;;;;;;4996552;28;20083;-69
2023/05/23 08:17:00;;;;;;;28.85;21.40;;;;;;;;;;4995753;28;20018;-69
2023/05/23 08:19:45;;;;;;;25.30;20.48;;;;;;;;;;4983384;28;20061;-68
2023/05/23 08:22:30;;;;;;;26.08;20.15;;;;;;;;;;4997982;28;20065;-75
2023/05/23 08:25:16;;;;;;;25.52;19.90;;;;;;;;;;4986970;28;20030;-69
2023/05/23 08:28:01;;;;;;;26.17;20.63;;;;;;;;;;4989531;28;20018;-70
2023/05/23 08:30:46;;;;;;;23.65;18.63;;;;;;;;;;4989335;28;20478;-69
2023/05/23 08:33:31;;;;;;;27.70;19.63;;;;;;;;;;4970093;28;20034;-69
2023/05/23 08:36:17;;;;;;;22.83;17.30;;;;;;;;;;4971937;28;20494;-70
2023/05/23 08:39:02;;;;;;;25.15;19.00;;;;;;;;;;4989516;28;20026;-69
2023/05/23 08:41:47;;;;;;;25.35;17.27;;;;;;;;;;4989083;28;20488;-75
2023/05/23 08:44:32;;;;;;;23.92;16.98;;;;;;;;;;4989186;28;20034;-74
2023/05/23 08:47:18;;;;;;;23.25;15.13;;;;;;;;;;4989297;28;20097;-75
2023/05/23 08:50:05;;;;;;;17.10;14.05;;;;;;;;;;4982933;28;20027;-75
2023/05/23 08:52:55;;;;;;;19.50;14.40;;;;;;;;;;4989046;28;20417;-74
2023/05/23 08:55:40;;;;;;;19.23;14.55;;;;;;;;;;5000100;28;20038;-76
2023/05/23 08:58:28;;;;;;;19.98;15.55;;;;;;;;;;4988752;28;20023;-67
2023/05/23 09:01:13;;;;;;;22.13;15.35;;;;;;;;;;4988984;28;20103;-68
2023/05/23 09:04:03;;;;;;;19.33;15.15;;;;;;;;;;5002543;28;20018;-68
2023/05/23 09:06:49;;;;;;;19.75;16.10;;;;;;;;;;4988991;28;20034;-68
2023/05/23 09:09:35;;;;;;;22.13;15.77;;;;;;;;;;4988982;28;20164;-69
2023/05/23 09:12:23;;;;;;;23.67;16.48;;;;;;;;;;4987351;28;20481;-68
2023/05/23 09:15:08;;;;;;;18.20;14.98;;;;;;;;;;4988714;28;20061;-69
2023/05/23 09:17:58;;;;;;;19.70;14.65;;;;;;;;;;4988761;28;20022;-73
2023/05/23 09:20:44;;;;;;;18.95;14.30;;;;;;;;;;4988792;28;20050;-73
2023/05/23 09:23:30;;;;;;;22.83;15.23;;;;;;;;;;4988716;28;20045;-74
2023/05/23 09:26:16;;;;;;;19.02;15.07;;;;;;;;;;4987379;28;20050;-74
2023/05/23 09:29:03;;;;;;;20.55;14.32;;;;;;;;;;4986283;28;20031;-75
2023/05/23 09:31:49;;;;;;;22.30;16.23;;;;;;;;;;4985988;28;20490;-73
2023/05/23 09:34:34;;;;;;;17.35;12.55;;;;;;;;;;4986235;28;20818;-73
2023/05/23 09:37:23;;;;;;;19.52;14.32;;;;;;;;;;4982679;28;20029;-67
2023/05/23 09:40:09;;;;;;;17.15;13.57;;;;;;;;;;4961955;28;20010;-68
2023/05/23 09:42:54;;;;;;;19.52;13.57;;;;;;;;;;4988326;28;20655;-67
2023/05/23 09:45:39;;;;;;;17.80;12.50;;;;;;;;;;4988589;28;20030;-70
2023/05/23 09:48:31;;;;;;;16.13;12.93;;;;;;;;;;4988345;28;20019;-69
2023/05/23 09:51:18;;;;;;;18.75;12.93;;;;;;;;;;4981851;28;20512;-69
2023/05/23 09:54:04;;;;;;;16.98;11.20;;;;;;;;;;4977652;28;20100;-69
2023/05/23 09:56:51;;;;;;;14.57;10.68;;;;;;;;;;4985401;28;20481;-75
2023/05/23 09:59:40;;;;;;;13.82;11.38;;;;;;;;;;5005974;28;20062;-75
2023/05/23 10:02:44;;;;;;;15.27;10.57;;;;;;;;;;4991719;28;20113;-77
2023/05/23 10:05:35;;;;;;;12.80;9.82;;;;;;;;;;4991911;28;20026;-74
2023/05/23 10:08:26;;;;;;;15.88;12.07;;;;;;;;;;4991825;28;20026;-62
2023/05/23 10:11:12;;;;;;;16.88;10.95;;;;;;;;;;4991565;28;20026;-75
2023/05/23 10:13:58;;;;;;;16.42;11.52;;;;;;;;;;4976860;28;20022;-73
2023/05/23 10:17:02;;;;;;;13.85;9.45;;;;;;;;;;5005004;28;20454;-69
2023/05/23 10:19:50;;;;;;;18.10;10.98;;;;;;;;;;4978473;28;20070;-69
2023/05/23 10:22:37;;;;;;;14.27;10.80;;;;;;;;;;4991569;28;20114;-69
2023/05/23 10:25:22;;;;;;;13.95;10.25;;;;;;;;;;4976243;28;20365;-68
2023/05/23 10:28:07;;;;;;;14.10;9.25;;;;;;;;;;4991523;28;20088;-70
2023/05/23 10:30:53;;;;;;;13.88;8.90;;;;;;;;;;4991510;28;20022;-67
2023/05/23 10:33:42;;;;;;;12.48;8.18;;;;;;;;;;4991625;28;20026;-68
2023/05/23 10:36:33;;;;;;;11.82;9.48;;;;;;;;;;4991230;28;20030;-69
2023/05/23 10:39:24;;;;;;;10.73;7.88;;;;;;;;;;4991646;28;20110;-69
2023/05/23 10:42:27;;;;;;;12.80;8.13;;;;;;;;;;4990997;28;20109;-69
2023/05/23 10:45:13;;;;;;;11.55;9.65;;;;;;;;;;4990214;28;20049;-68
2023/05/23 10:47:58;;;;;;;10.93;7.82;;;;;;;;;;4982531;28;20610;-70
2023/05/23 10:50:45;;;;;;;10.73;7.95;;;;;;;;;;4979927;28;20023;-66
2023/05/23 10:53:31;;;;;;;12.75;7.88;;;;;;;;;;4977156;28;20533;-73
2023/05/23 10:56:24;;;;;;;11.35;7.90;;;;;;;;;;4984296;28;20034;-72
2023/05/23 10:59:18;;;;;;;10.63;7.57;;;;;;;;;;4988857;28;20053;-75
2023/05/23 11:02:08;;;;;;;10.02;7.82;;;;;;;;;;4990038;28;20022;-73
2023/05/23 11:05:12;;;;;;;13.10;9.30;;;;;;;;;;4991253;28;20053;-72
2023/05/23 11:08:12;;;;;;;11.45;7.75;;;;;;;;;;4981893;28;20388;-74
2023/05/23 11:10:58;;;;;;;10.57;7.80;;;;;;;;;;4990908;28;20033;-74
2023/05/23 11:13:54;;;;;;;12.73;8.85;;;;;;;;;;4990328;28;20478;-74
2023/05/23 11:16:40;;;;;;;10.45;7.68;;;;;;;;;;4991028;28;20029;-74
2023/05/23 11:19:27;;;;;;;10.25;7.68;;;;;;;;;;4990425;28;20052;-73
2023/05/23 11:22:12;;;;;;;12.05;7.70;;;;;;;;;;4990688;28;20029;-73
2023/05/23 11:24:58;;;;;;;9.63;6.60;;;;;;;;;;4990690;28;20034;-73
2023/05/23 11:27:44;;;;;;;8.57;6.60;;;;;;;;;;4985757;28;20566;-67
2023/05/23 11:30:30;;;;;;;10.82;6.53;;;;;;;;;;4990507;28;20041;-70
2023/05/23 11:33:17;;;;;;;9.88;7.07;;;;;;;;;;4989900;28;20158;-69
2023/05/23 11:36:05;;;;;;;8.38;6.38;;;;;;;;;;4990135;28;20034;-69
2023/05/23 11:38:51;;;;;;;10.35;7.30;;;;;;;;;;4990244;28;20109;-69
2023/05/23 11:41:36;;;;;;;7.57;6.03;;;;;;;;;;4988910;28;20023;-69
2023/05/23 11:44:22;;;;;;;10.50;7.35;;;;;;;;;;4979652;28;20042;-69
2023/05/23 11:47:07;;;;;;;13.18;7.90;;;;;;;;;;4977577;28;20520;-68
2023/05/23 11:49:53;;;;;;;11.45;7.90;;;;;;;;;;4989234;28;20069;-67
2023/05/23 11:52:38;;;;;;;11.43;8.00;;;;;;;;;;4990152;28;20076;-68
2023/05/23 11:55:24;;;;;;;14.43;9.10;;;;;;;;;;4974572;28;20018;-67
2023/05/23 11:58:09;;;;;;;10.20;7.65;;;;;;;;;;4984354;28;20093;-68
2023/05/23 12:01:02;;;;;;;12.65;8.80;;;;;;;;;;4989746;28;20070;-70
2023/05/23 12:03:49;;;;;;;11.73;7.40;;;;;;;;;;4988553;28;20077;-68
2023/05/23 12:06:35;;;;;;;9.30;7.22;;;;;;;;;;4989441;28;20508;-69
2023/05/23 12:09:20;;;;;;;12.80;8.50;;;;;;;;;;4989610;28;20485;-69
2023/05/23 12:12:06;;;;;;;9.75;7.63;;;;;;;;;;4989379;28;20721;-69
2023/05/23 12:14:54;;;;;;;9.15;7.32;;;;;;;;;;4989928;28;20027;-70
2023/05/23 12:17:44;;;;;;;9.67;7.40;;;;;;;;;;4988734;28;20049;-68
2023/05/23 12:20:33;;;;;;;10.40;7.47;;;;;;;;;;4976422;28;20606;-72
2023/05/23 12:23:22;;;;;;;10.82;7.47;;;;;;;;;;4977552;28;20053;-69
2023/05/23 12:26:09;;;;;;;9.43;7.03;;;;;;;;;;4989418;28;20030;-72
2023/05/23 12:28:54;;;;;;;10.48;7.82;;;;;;;;;;4990120;28;20389;-71
2023/05/23 12:31:40;;;;;;;8.60;6.65;;;;;;;;;;4989504;28;20085;-71
2023/05/23 12:34:25;;;;;;;7.70;6.40;;;;;;;;;;4989074;28;20030;-72
2023/05/23 12:37:11;;;;;;;8.32;5.93;;;;;;;;;;4989024;28;20026;-71
2023/05/23 12:39:57;;;;;;;9.73;6.10;;;;;;;;;;4989407;28;20108;-74
2023/05/23 12:42:43;;;;;;;8.98;6.45;;;;;;;;;;4988984;28;20042;-66
2023/05/23 12:45:35;;;;;;;9.48;5.97;;;;;;;;;;4985524;28;20050;-66
2023/05/23 12:48:20;;;;;;;8.13;5.63;;;;;;;;;;5002558;28;20062;-67
2023/05/23 12:51:06;;;;;;;9.10;5.93;;;;;;;;;;4982930;28;20026;-69
2023/05/23 12:53:51;;;;;;;8.68;5.30;;;;;;;;;;4989175;28;20109;-66
2023/05/23 12:56:36;;;;;;;5.50;4.70;;;;;;;;;;4988922;28;20022;-66
2023/05/23 12:59:22;;;;;;;7.95;4.85;;;;;;;;;;4989051;28;20377;-69
2023/05/23 13:02:07;;;;;;;8.15;5.07;;;;;;;;;;4988864;28;20036;-68
2023/05/23 13:04:53;;;;;;;6.95;5.57;;;;;;;;;;4989174;28;20033;-66
2023/05/23 13:07:38;;;;;;;8.82;5.30;;;;;;;;;;4989156;28;20025;-70
2023/05/23 13:10:23;;;;;;;8.00;5.78;;;;;;;;;;4988838;28;20105;-67
2023/05/23 13:13:09;;;;;;;7.10;4.85;;;;;;;;;;4988947;28;20038;-68
2023/05/23 13:15:54;;;;;;;7.95;5.70;;;;;;;;;;4982889;28;20031;-66
2023/05/23 13:18:40;;;;;;;8.48;5.90;;;;;;;;;;5002554;28;20042;-68
2023/05/23 13:21:26;;;;;;;7.20;4.72;;;;;;;;;;4994655;28;20026;-68
2023/05/23 13:24:11;;;;;;;6.32;4.68;;;;;;;;;;4994378;28;20486;-68
2023/05/23 13:26:56;;;;;;;6.00;4.20;;;;;;;;;;4994651;28;20059;-70
2023/05/23 13:29:42;;;;;;;6.18;4.40;;;;;;;;;;4994702;28;20022;-70
2023/05/23 13:32:27;;;;;;;4.57;4.00;;;;;;;;;;4996933;28;20041;-69
2023/05/23 13:35:12;;;;;;;6.25;4.53;;;;;;;;;;4967238;28;20034;-72
2023/05/23 13:37:57;;;;;;;6.00;4.45;;;;;;;;;;4997219;28;20044;-74
2023/05/23 13:40:43;;;;;;;6.72;4.13;;;;;;;;;;4998702;28;20144;-74
2023/05/23 13:43:28;;;;;;;6.53;4.03;;;;;;;;;;4998161;28;20065;-75
2023/05/23 13:46:13;;;;;;;9.73;5.03;;;;;;;;;;4998564;28;20354;-73
2023/05/23 13:48:58;;;;;;;5.38;3.70;;;;;;;;;;4998040;28;20101;-74
2023/05/23 13:51:44;;;;;;;9.90;5.40;;;;;;;;;;4998587;28;20096;-73
2023/05/23 13:54:29;;;;;;;4.78;3.45;;;;;;;;;;4998624;28;20026;-76
2023/05/23 13:57:14;;;;;;;5.72;3.60;;;;;;;;;;4979621;28;20378;-73
2023/05/23 14:00:00;;;;;;;6.00;3.65;;;;;;;;;;4994064;28;20022;-72
2023/05/23 14:02:45;;;;;;;13.50;4.00;;;;;;;;;;4991766;28;20037;-73
2023/05/23 14:05:30;;;;;;;5.13;3.58;;;;;;;;;;4997275;28;20345;-72
2023/05/23 14:08:15;;;;;;;8.02;3.58;;;;;;;;;;4998312;28;20052;-72
2023/05/23 14:11:00;;;;;;;8.30;3.25;;;;;;;;;;4998503;28;20076;-70
2023/05/23 14:13:46;;;;;;;4.57;3.38;;;;;;;;;;4997754;28;20024;-73
2023/05/23 14:16:31;;;;;;;5.70;3.95;;;;;;;;;;4984640;28;20022;-71
2023/05/23 14:19:16;;;;;;;6.63;3.88;;;;;;;;;;4997571;28;20057;-72
2023/05/23 14:22:01;;;;;;;7.22;4.25;;;;;;;;;;4998048;28;20392;-72
2023/05/23 14:24:47;;;;;;;6.20;3.78;;;;;;;;;;4983784;28;20034;-71
2023/05/23 14:27:33;;;;;;;5.55;3.67;;;;;;;;;;4985263;28;20057;-74
2023/05/23 14:30:18;;;;;;;7.50;4.10;;;;;;;;;;4998104;28;20053;-69
2023/05/23 14:33:04;;;;;;;7.97;4.30;;;;;;;;;;4992418;28;20034;-67
2023/05/23 14:35:49;;;;;;;5.32;3.80;;;;;;;;;;4997535;28;20112;-67
2023/05/23 14:38:34;;;;;;;5.25;3.17;;;;;;;;;;4985213;28;20029;-68
2023/05/23 14:41:21;;;;;;;9.02;3.70;;;;;;;;;;4997436;28;20084;-67
2023/05/23 14:44:06;;;;;;;6.20;4.22;;;;;;;;;;4996897;28;20034;-68
2023/05/23 14:46:52;;;;;;;9.35;4.47;;;;;;;;;;4997392;28;20029;-68
2023/05/23 14:49:37;;;;;;;6.85;3.88;;;;;;;;;;4991142;28;20041;-70
2023/05/23 14:52:22;;;;;;;7.90;3.85;;;;;;;;;;4997297;28;20112;-70
2023/05/23 14:55:08;;;;;;;7.75;4.15;;;;;;;;;;4997154;28;20058;-70
2023/05/23 14:57:53;;;;;;;7.40;4.70;;;;;;;;;;4997345;28;20052;-68
2023/05/23 15:00:39;;;;;;;7.13;3.88;;;;;;;;;;4978519;28;20026;-68
2023/05/23 15:03:25;;;;;;;6.30;4.38;;;;;;;;;;4992620;28;20132;-69
2023/05/23 15:06:10;;;;;;;6.03;3.70;;;;;;;;;;4997174;28;20481;-74
2023/05/23 15:08:56;;;;;;;7.13;3.97;;;;;;;;;;4997206;28;20060;-67
2023/05/23 15:11:43;;;;;;;5.03;4.15;;;;;;;;;;4997168;28;20117;-69
2023/05/23 15:14:30;;;;;;;5.00;3.65;;;;;;;;;;4996792;28;20520;-67
2023/05/23 15:17:19;;;;;;;6.80;3.50;;;;;;;;;;4996762;28;20022;-67
2023/05/23 15:20:04;;;;;;;5.22;3.47;;;;;;;;;;4985626;28;20129;-65
2023/05/23 15:22:50;;;;;;;9.38;4.88;;;;;;;;;;4996534;28;20048;-66
2023/05/23 15:25:35;;;;;;;7.82;3.33;;;;;;;;;;4996742;28;20080;-69
2023/05/23 15:28:20;;;;;;;6.30;3.92;;;;;;;;;;4982940;28;20022;-76
2023/05/23 15:31:06;;;;;;;4.72;2.83;;;;;;;;;;4996595;28;20017;-74
2023/05/23 15:33:51;;;;;;;4.85;3.50;;;;;;;;;;4992910;28;20022;-74
2023/05/23 15:36:38;;;;;;;4.55;3.10;;;;;;;;;;4996120;28;20087;-75
2023/05/23 15:39:26;;;;;;;3.03;2.40;;;;;;;;;;4996040;28;20021;-74
2023/05/23 15:42:12;;;;;;;4.53;3.05;;;;;;;;;;4985130;28;20068;-75
2023/05/23 15:44:57;;;;;;;8.50;3.92;;;;;;;;;;4996014;28;20500;-67
2023/05/23 15:47:42;;;;;;;6.38;3.72;;;;;;;;;;4988051;28;20030;-74
2023/05/23 15:50:27;;;;;;;5.95;4.13;;;;;;;;;;4989586;28;20063;-72
2023/05/23 15:53:13;;;;;;;7.22;4.68;;;;;;;;;;4994483;28;20116;-72
2023/05/23 15:55:58;;;;;;;6.32;3.90;;;;;;;;;;4981986;28;20460;-73
2023/05/23 15:58:43;;;;;;;4.95;3.67;;;;;;;;;;4996085;28;20021;-71
2023/05/23 16:01:29;;;;;;;9.80;4.80;;;;;;;;;;4996433;28;20030;-68
2023/05/23 16:04:14;;;;;;;6.18;3.72;;;;;;;;;;4990255;28;20113;-66
2023/05/23 16:07:00;;;;;;;9.02;3.47;;;;;;;;;;5007082;28;20025;-74
2023/05/23 16:09:45;;;;;;;7.43;4.45;;;;;;;;;;4996118;28;20033;-76
2023/05/23 16:12:30;;;;;;;8.82;4.15;;;;;;;;;;4995745;28;20022;-74
2023/05/23 16:15:16;;;;;;;6.97;4.45;;;;;;;;;;4995920;28;20021;-75
2023/05/23 16:18:02;;;;;;;6.57;5.05;;;;;;;;;;4995685;28;20022;-74